Kezdőlap
METAR-TAF:

METAR-TAF

Repülőterek :

Chihuahua, Mexikó

földrajzi szélesség: 28-42N, földrajzi hosszúság: 105-58W, magasság: 1360 m

Jelenlegi meteorológiai megfigyelések

A jelentés 1 órával és 20 perccel ezelõtt készült, 17:41 UTC
Nyugat-délnyugati szél 16 kt
Hőmérséklet 23°C
Páratartalom 12%
Légköri nyomás 1016 hPa
Látótávolság: 16.1 km
Derült ég

METAR: MMCU 151741Z 24016KT 10SM SKC 23/M08 A2999 RMK SLP079 52004 966

Idő: 12:01 (19:01 UTC)

Előrejelzés

A jelentés 1 órával és 35 perccel ezelõtt készült, 17:26 UTC
Az előrejelzés 15-én 18 óra UTC és 16-én 18 óra UTC között érvényes
Nyugat-délnyugati szél 18 kt
Látótávolság: 10 km
Derült ég
16-én 0300 órától UTC szerint
Nyugati szél 10 kt
Látótávolság: 10 km
Derült ég

TAF: MMCU 151726Z 1518/1618 25018KT P6SM SKC FM160300 26010KT P6SM SKC

Meteorológiai megfigyelések és előrejelzések több, mint 4000 repülőtéren (METAR és TAF jelentéseket).

A térképen piros és sárga pontok jelzik az elérhető meteorológiai állomásokat.

Mozgassa az egeret a pont fölött, hogy megjelenjen az állomás neve.

Azután kattintson az időjárási megfigyelések és előrejelzések megtekintéséhez.

A térkép megváltoztatása: kattintson a fekete keresztel jelölt zöld gombra ráközelítéshez, a vonallal jelölt zöld gombra távolításhoz, vagy a zöld nyilakra a szomszédos térképek eléréséhez.


METAR-TAF: